createdAt,value
2022-12-12T00:00:51.471Z,27.50
2022-12-12T00:03:18.726Z,27.13
2022-12-12T00:05:45.667Z,24.52
2022-12-12T00:08:12.341Z,24.52
2022-12-12T00:10:39.168Z,23.75
2022-12-12T00:13:05.917Z,24.98
2022-12-12T00:15:33.003Z,24.80
2022-12-12T00:17:59.789Z,20.92
2022-12-12T00:20:26.519Z,24.38
2022-12-12T00:22:53.338Z,24.13
2022-12-12T00:25:20.081Z,26.50
2022-12-12T00:27:46.880Z,26.40
2022-12-12T00:30:13.738Z,21.67
2022-12-12T00:32:40.463Z,25.23
2022-12-12T00:35:07.651Z,24.17
2022-12-12T00:37:34.384Z,25.52
2022-12-12T00:40:01.252Z,22.25
2022-12-12T00:42:28.564Z,27.17
2022-12-12T00:44:55.285Z,27.27
2022-12-12T00:47:22.483Z,23.92
2022-12-12T00:49:49.245Z,21.48
2022-12-12T00:52:15.941Z,23.60
2022-12-12T00:54:42.656Z,27.58
2022-12-12T00:57:09.386Z,20.85
2022-12-12T00:59:36.213Z,25.98
2022-12-12T01:02:03.933Z,24.08
2022-12-12T01:04:30.893Z,22.70
2022-12-12T01:06:57.742Z,22.33
2022-12-12T01:09:24.482Z,21.15
2022-12-12T01:11:51.176Z,22.85
2022-12-12T01:14:17.933Z,24.60
2022-12-12T01:16:44.602Z,25.52
2022-12-12T01:19:11.254Z,22.70
2022-12-12T01:21:37.918Z,25.30
2022-12-12T01:24:04.938Z,25.58
2022-12-12T01:26:31.736Z,24.20
2022-12-12T01:28:58.630Z,20.77
2022-12-12T01:31:25.404Z,28.10
2022-12-12T01:33:52.230Z,25.02
2022-12-12T01:36:21.814Z,25.63
2022-12-12T01:38:50.164Z,22.85
2022-12-12T01:41:18.251Z,22.58
2022-12-12T01:43:45.366Z,24.48
2022-12-12T01:46:35.227Z,27.02
2022-12-12T01:49:13.750Z,25.67
2022-12-12T01:51:41.586Z,22.38
2022-12-12T01:54:13.773Z,23.52
2022-12-12T01:56:43.279Z,23.05
2022-12-12T01:59:13.662Z,22.25
2022-12-12T02:01:41.403Z,21.77
2022-12-12T02:04:09.653Z,22.17
2022-12-12T02:06:36.789Z,24.45
2022-12-12T02:09:09.364Z,24.08
2022-12-12T02:14:08.174Z,22.83
2022-12-12T02:16:44.662Z,21.33
2022-12-12T02:19:24.385Z,21.85
2022-12-12T02:21:59.334Z,24.08
2022-12-12T02:24:26.334Z,19.85
2022-12-12T02:27:21.873Z,19.23
2022-12-12T02:29:54.645Z,23.65
2022-12-12T02:32:27.177Z,21.83
2022-12-12T02:35:05.907Z,19.65
2022-12-12T02:37:41.326Z,21.23
2022-12-12T02:40:27.793Z,22.98
2022-12-12T02:43:56.129Z,22.30
2022-12-12T02:46:36.728Z,19.50
2022-12-12T02:49:08.746Z,21.05
2022-12-12T02:51:36.872Z,22.20
2022-12-12T02:54:05.280Z,23.60
2022-12-12T02:56:52.835Z,21.85
2022-12-12T02:59:37.079Z,19.63
2022-12-12T03:02:15.256Z,19.65
2022-12-12T03:05:25.206Z,19.20
2022-12-12T03:08:09.812Z,23.60
2022-12-12T03:11:06.061Z,21.58
2022-12-12T03:13:43.694Z,23.55
2022-12-12T03:16:13.390Z,21.15
2022-12-12T03:19:08.603Z,24.95
2022-12-12T03:21:38.201Z,22.80
2022-12-12T03:24:22.056Z,23.17
2022-12-12T03:26:54.775Z,20.20
2022-12-12T03:29:29.004Z,26.73
2022-12-12T03:32:05.086Z,22.48
2022-12-12T03:34:39.300Z,25.95
2022-12-12T03:37:15.502Z,20.40
2022-12-12T03:39:57.760Z,20.30
2022-12-12T03:42:34.875Z,21.13
2022-12-12T03:45:26.019Z,20.58
2022-12-12T03:47:58.633Z,27.45
2022-12-12T03:53:10.544Z,25.73
2022-12-12T03:58:38.882Z,24.80
2022-12-12T04:01:10.638Z,26.80
2022-12-12T04:03:52.031Z,24.00
2022-12-12T04:06:38.621Z,20.25
2022-12-12T04:09:33.308Z,23.50
2022-12-12T04:13:00.502Z,23.00
2022-12-12T04:15:53.016Z,26.50
2022-12-12T04:18:40.797Z,21.90
2022-12-12T04:21:40.373Z,24.02
2022-12-12T04:24:38.610Z,27.65
2022-12-12T04:27:12.211Z,21.30
2022-12-12T04:29:42.019Z,23.27
2022-12-12T04:32:38.225Z,22.60
2022-12-12T04:35:19.638Z,23.35
2022-12-12T04:37:50.521Z,24.55
2022-12-12T04:40:27.132Z,19.42
2022-12-12T04:42:58.035Z,24.42
2022-12-12T04:45:29.224Z,24.70
2022-12-12T04:47:57.312Z,24.30
2022-12-12T04:50:27.001Z,24.50
2022-12-12T04:52:56.705Z,24.58
2022-12-12T04:55:40.948Z,23.42
2022-12-12T04:58:08.673Z,26.00
2022-12-12T05:00:43.813Z,22.02
2022-12-12T05:03:33.182Z,25.00
2022-12-12T05:06:05.685Z,24.55
2022-12-12T05:08:47.290Z,26.95
2022-12-12T05:11:15.471Z,26.15
2022-12-12T05:13:43.145Z,23.45
2022-12-12T05:16:20.627Z,28.02
2022-12-12T05:18:47.611Z,23.77
2022-12-12T05:21:14.810Z,22.38
2022-12-12T05:23:41.654Z,26.73
2022-12-12T05:26:18.892Z,31.05
2022-12-12T05:28:45.566Z,28.42
2022-12-12T05:31:12.268Z,26.65
2022-12-12T05:33:39.077Z,27.30
2022-12-12T05:36:06.124Z,29.30
2022-12-12T05:38:32.798Z,29.05
2022-12-12T05:40:59.526Z,28.15
2022-12-12T05:43:26.289Z,26.00
2022-12-12T05:45:53.046Z,28.27
2022-12-12T05:48:24.358Z,32.47
2022-12-12T05:50:52.286Z,28.40
2022-12-12T05:53:19.818Z,27.60
2022-12-12T05:55:46.679Z,23.10
2022-12-12T05:58:13.433Z,25.92
2022-12-12T06:00:40.139Z,26.35
2022-12-12T06:03:06.899Z,27.48
2022-12-12T06:05:34.279Z,30.70
2022-12-12T06:08:00.978Z,27.55
2022-12-12T06:10:27.704Z,28.90
2022-12-12T06:12:54.388Z,29.73
2022-12-12T06:15:21.076Z,22.40
2022-12-12T06:17:47.970Z,28.58
2022-12-12T06:20:14.682Z,30.25
2022-12-12T06:22:42.277Z,32.22
2022-12-12T06:25:09.752Z,31.70
2022-12-12T06:27:36.946Z,30.20
2022-12-12T06:30:05.176Z,30.08
2022-12-12T06:32:31.894Z,28.30
2022-12-12T06:34:58.663Z,29.20
2022-12-12T06:37:25.317Z,30.15
2022-12-12T06:39:52.159Z,32.90
2022-12-12T06:42:18.890Z,32.85
2022-12-12T06:44:45.698Z,31.92
2022-12-12T06:47:12.395Z,31.05
2022-12-12T06:49:39.134Z,32.90
2022-12-12T06:52:05.882Z,33.88
2022-12-12T06:54:32.572Z,35.25
2022-12-12T06:56:59.279Z,33.20
2022-12-12T06:59:28.902Z,31.23
2022-12-12T07:01:56.789Z,34.83
2022-12-12T07:04:24.378Z,32.35
2022-12-12T07:06:51.480Z,34.60
2022-12-12T07:09:19.147Z,31.70
2022-12-12T07:11:45.861Z,31.42
2022-12-12T07:14:12.594Z,33.35
2022-12-12T07:16:39.366Z,35.47
2022-12-12T07:19:06.084Z,32.78
2022-12-12T07:21:32.928Z,30.65
2022-12-12T07:23:59.679Z,35.75
2022-12-12T07:26:26.388Z,36.92
2022-12-12T07:28:53.132Z,29.00
2022-12-12T07:31:22.822Z,32.53
2022-12-12T07:33:49.602Z,33.42
2022-12-12T07:36:17.333Z,34.35
2022-12-12T07:38:45.123Z,32.70
2022-12-12T07:41:15.212Z,32.90
2022-12-12T07:43:45.026Z,31.45
2022-12-12T07:46:20.045Z,31.10
2022-12-12T07:48:47.367Z,30.67
2022-12-12T07:51:14.968Z,26.05
2022-12-12T07:53:42.382Z,32.08
2022-12-12T07:56:11.337Z,30.58
2022-12-12T07:58:38.701Z,32.20
2022-12-12T08:01:26.398Z,30.55
2022-12-12T08:03:54.399Z,30.70
2022-12-12T08:06:23.094Z,30.80
2022-12-12T08:08:50.871Z,35.33
2022-12-12T08:11:20.272Z,34.33
2022-12-12T08:13:47.295Z,29.67
2022-12-12T08:16:18.022Z,32.42
2022-12-12T08:18:45.104Z,30.70
2022-12-12T08:21:13.651Z,34.55
2022-12-12T08:23:41.132Z,34.10
2022-12-12T08:26:10.448Z,33.30
2022-12-12T08:28:37.534Z,33.70
2022-12-12T08:31:04.539Z,33.70
2022-12-12T08:33:31.300Z,38.08
2022-12-12T08:35:57.981Z,31.20
2022-12-12T08:38:26.835Z,35.67
2022-12-12T08:40:53.484Z,33.88
2022-12-12T08:43:20.214Z,35.28
2022-12-12T08:45:47.840Z,36.60
2022-12-12T08:48:14.580Z,34.78
2022-12-12T08:50:42.465Z,35.28
2022-12-12T08:53:09.266Z,39.33
2022-12-12T08:55:36.183Z,34.55
2022-12-12T08:58:02.968Z,32.22
2022-12-12T09:00:29.721Z,35.25
2022-12-12T09:02:56.503Z,34.30
2022-12-12T09:05:23.212Z,34.63
2022-12-12T09:07:50.961Z,35.45
2022-12-12T09:10:17.917Z,37.50
2022-12-12T09:12:44.566Z,33.63
2022-12-12T09:15:11.993Z,35.45
2022-12-12T09:17:38.974Z,35.70
2022-12-12T09:20:06.148Z,36.53
2022-12-12T09:22:33.203Z,36.58
2022-12-12T09:25:00.286Z,39.90
2022-12-12T09:27:27.200Z,36.90
2022-12-12T09:29:53.875Z,41.40
2022-12-12T09:32:24.654Z,43.15
2022-12-12T09:34:51.829Z,39.53
2022-12-12T09:37:18.818Z,40.17
2022-12-12T09:39:45.518Z,41.10
2022-12-12T09:42:25.038Z,41.83
2022-12-12T09:44:55.595Z,43.45
2022-12-12T09:47:40.906Z,43.63
2022-12-12T09:50:32.395Z,44.78
2022-12-12T09:53:02.922Z,46.00
2022-12-12T09:55:38.759Z,45.10
2022-12-12T09:58:08.908Z,46.85
2022-12-12T10:00:40.837Z,47.00
2022-12-12T10:03:48.764Z,50.42
2022-12-12T10:09:42.008Z,48.10
2022-12-12T10:12:13.949Z,45.75
2022-12-12T10:14:57.843Z,50.17
2022-12-12T10:17:39.362Z,45.72
2022-12-12T10:20:37.669Z,44.85
2022-12-12T10:23:19.597Z,46.50
2022-12-12T10:26:06.900Z,43.27
2022-12-12T10:28:34.850Z,48.00
2022-12-12T10:31:13.364Z,52.88
2022-12-12T10:34:10.721Z,48.45
2022-12-12T10:37:11.866Z,51.83
2022-12-12T10:39:53.565Z,53.15
2022-12-12T10:42:31.874Z,48.70
2022-12-12T10:45:38.284Z,47.05
2022-12-12T10:48:05.573Z,51.63
2022-12-12T10:50:45.679Z,49.05
2022-12-12T10:53:13.042Z,45.67
2022-12-12T10:56:17.159Z,45.17
2022-12-12T10:58:51.307Z,45.72
2022-12-12T11:01:38.480Z,48.58
2022-12-12T11:04:08.437Z,46.63
2022-12-12T11:06:49.130Z,46.53
2022-12-12T11:09:22.756Z,48.67
2022-12-12T11:12:09.646Z,49.42
2022-12-12T11:14:44.962Z,45.22
2022-12-12T11:17:31.864Z,44.33
2022-12-12T11:20:00.486Z,46.20
2022-12-12T11:22:30.466Z,49.10
2022-12-12T11:24:57.502Z,50.20
2022-12-12T11:27:38.099Z,51.40
2022-12-12T11:30:22.757Z,53.08
2022-12-12T11:32:52.827Z,51.25
2022-12-12T11:35:22.370Z,51.35
2022-12-12T11:37:52.439Z,50.63
2022-12-12T11:40:34.359Z,52.70
2022-12-12T11:43:23.675Z,56.17
2022-12-12T11:46:13.398Z,54.88
2022-12-12T11:48:44.963Z,53.20
2022-12-12T11:51:11.785Z,46.80
2022-12-12T11:53:41.305Z,51.67
2022-12-12T11:56:26.147Z,55.40
2022-12-12T11:59:16.238Z,58.67
2022-12-12T12:01:59.169Z,55.55
2022-12-12T12:04:49.577Z,55.33
2022-12-12T12:07:56.691Z,48.10
2022-12-12T12:10:41.432Z,50.58
2022-12-12T12:13:17.222Z,51.05
2022-12-12T12:15:52.402Z,52.75
2022-12-12T12:18:30.970Z,53.53
2022-12-12T12:21:16.035Z,53.35
2022-12-12T12:24:03.682Z,50.83
2022-12-12T12:26:54.653Z,51.22
2022-12-12T12:29:35.874Z,47.15
2022-12-12T12:32:12.047Z,49.88
2022-12-12T12:35:07.833Z,46.33
2022-12-12T12:38:02.608Z,49.35
2022-12-12T12:41:01.335Z,49.00
2022-12-12T12:43:43.396Z,43.95
2022-12-12T12:46:17.147Z,45.05
2022-12-12T12:48:49.733Z,44.15
2022-12-12T12:51:22.992Z,46.13
2022-12-12T12:54:02.616Z,41.13
2022-12-12T12:56:32.805Z,45.60
2022-12-12T12:59:09.901Z,47.13
2022-12-12T13:01:38.964Z,44.63
2022-12-12T13:04:14.704Z,35.25
2022-12-12T13:07:05.733Z,43.25
2022-12-12T13:09:46.612Z,42.78
2022-12-12T13:12:38.539Z,39.05
2022-12-12T13:15:21.439Z,41.97
2022-12-12T13:20:22.984Z,41.28
2022-12-12T13:23:14.997Z,43.13
2022-12-12T13:25:52.774Z,38.45
2022-12-12T13:28:25.878Z,42.78
2022-12-12T13:31:26.649Z,39.33
2022-12-12T13:33:57.774Z,39.45
2022-12-12T13:36:30.326Z,37.05
2022-12-12T13:39:00.261Z,37.03
2022-12-12T13:41:27.123Z,40.20
2022-12-12T13:43:59.824Z,36.78
2022-12-12T13:48:56.891Z,37.70
2022-12-12T13:51:32.116Z,36.67
2022-12-12T13:54:12.667Z,38.95
2022-12-12T13:56:52.879Z,37.97
2022-12-12T13:59:22.327Z,36.47
2022-12-12T14:01:59.413Z,42.78
2022-12-12T14:04:39.675Z,40.35
2022-12-12T14:07:12.378Z,43.00
2022-12-12T14:12:21.389Z,38.65
2022-12-12T14:14:58.884Z,43.65
2022-12-12T14:17:28.971Z,34.42
2022-12-12T14:19:58.466Z,35.03
2022-12-12T14:22:37.237Z,35.83
2022-12-12T14:25:11.787Z,39.97
2022-12-12T14:27:50.194Z,42.67
2022-12-12T14:30:45.983Z,38.35
2022-12-12T14:33:59.346Z,34.90
2022-12-12T14:36:49.889Z,34.70
2022-12-12T14:39:22.403Z,36.95
2022-12-12T14:41:49.544Z,34.75
2022-12-12T14:44:36.616Z,34.53
2022-12-12T14:47:08.798Z,33.95
2022-12-12T14:49:35.507Z,38.75
2022-12-12T14:52:02.513Z,33.85
2022-12-12T14:54:31.112Z,35.92
2022-12-12T14:56:59.021Z,37.75
2022-12-12T14:59:38.339Z,32.90
2022-12-12T15:02:31.878Z,37.22
2022-12-12T15:05:05.037Z,35.88
2022-12-12T15:07:35.082Z,37.05
2022-12-12T15:10:02.148Z,32.55
2022-12-12T15:12:42.693Z,35.65
2022-12-12T15:15:27.444Z,31.83
2022-12-12T15:17:57.182Z,35.38
2022-12-12T15:20:27.998Z,32.75
2022-12-12T15:23:03.856Z,34.90
2022-12-12T15:25:33.279Z,35.85
2022-12-12T15:28:01.686Z,36.33
2022-12-12T15:30:36.999Z,35.88
2022-12-12T15:33:06.845Z,35.47
2022-12-12T15:35:34.134Z,31.48
2022-12-12T15:38:14.169Z,35.55
2022-12-12T15:40:43.049Z,33.83
2022-12-12T15:43:15.873Z,36.65
2022-12-12T15:45:47.654Z,38.67
2022-12-12T15:48:15.692Z,39.83
2022-12-12T15:50:42.543Z,42.40
2022-12-12T15:53:26.826Z,41.15
2022-12-12T15:56:04.966Z,42.03
2022-12-12T15:58:46.718Z,40.17
2022-12-12T16:01:21.752Z,37.13
2022-12-12T16:03:58.515Z,41.20
2022-12-12T16:06:30.974Z,37.72
2022-12-12T16:09:06.767Z,38.83
2022-12-12T16:11:39.342Z,41.58
2022-12-12T16:16:52.955Z,42.72
2022-12-12T16:19:33.592Z,36.95
2022-12-12T16:22:20.280Z,34.95
2022-12-12T16:24:52.685Z,36.50
2022-12-12T16:27:19.974Z,38.53
2022-12-12T16:29:47.025Z,38.72
2022-12-12T16:32:17.192Z,41.03
2022-12-12T16:34:44.745Z,39.13
2022-12-12T16:37:16.991Z,37.65
2022-12-12T16:39:44.386Z,40.97
2022-12-12T16:42:16.960Z,43.08
2022-12-12T16:47:19.483Z,45.67
2022-12-12T16:49:46.733Z,47.05
2022-12-12T16:52:15.046Z,41.13
2022-12-12T16:54:42.296Z,41.45
2022-12-12T16:57:08.965Z,41.88
2022-12-12T16:59:35.987Z,39.30
2022-12-12T17:02:02.835Z,38.03
2022-12-12T17:04:29.609Z,37.20
2022-12-12T17:06:57.363Z,37.38
2022-12-12T17:09:29.604Z,43.38
2022-12-12T17:11:56.802Z,43.50
2022-12-12T17:14:24.897Z,42.28
2022-12-12T17:16:53.515Z,39.55
2022-12-12T17:19:20.440Z,40.53
2022-12-12T17:21:47.258Z,42.17
2022-12-12T17:24:15.114Z,40.78
2022-12-12T17:26:41.789Z,39.55
2022-12-12T17:29:09.216Z,43.13
2022-12-12T17:31:36.085Z,42.55
2022-12-12T17:34:03.752Z,34.80
2022-12-12T17:36:30.783Z,35.50
2022-12-12T17:38:57.932Z,44.22
2022-12-12T17:41:24.857Z,40.97
2022-12-12T17:43:55.428Z,43.40
2022-12-12T17:46:23.336Z,43.60
2022-12-12T17:48:52.295Z,45.03
2022-12-12T17:51:21.963Z,41.22
2022-12-12T17:53:50.985Z,40.53
2022-12-12T17:56:24.278Z,40.90
2022-12-12T17:58:50.973Z,41.25
2022-12-12T18:01:22.537Z,41.47
2022-12-12T18:03:49.889Z,46.00
2022-12-12T18:06:18.341Z,47.95
2022-12-12T18:08:45.642Z,49.55
2022-12-12T18:11:15.870Z,44.40
2022-12-12T18:13:43.446Z,41.28
2022-12-12T18:16:12.759Z,52.63
2022-12-12T18:18:40.596Z,54.22
2022-12-12T18:21:12.885Z,55.22
2022-12-12T18:23:42.665Z,50.75
2022-12-12T18:26:17.247Z,53.38
2022-12-12T18:28:49.323Z,48.25
2022-12-12T18:31:16.149Z,51.75
2022-12-12T18:33:43.011Z,57.83
2022-12-12T18:36:18.950Z,55.83
2022-12-12T18:38:47.906Z,50.63
2022-12-12T18:41:15.730Z,49.30
2022-12-12T18:43:43.010Z,47.38
2022-12-12T18:46:15.481Z,50.95
2022-12-12T18:48:44.929Z,49.08
2022-12-12T18:51:23.253Z,50.50
2022-12-12T18:53:51.132Z,52.05
2022-12-12T18:56:26.687Z,50.47
2022-12-12T18:58:54.364Z,50.80
2022-12-12T19:01:23.784Z,42.45
2022-12-12T19:03:52.745Z,45.15
2022-12-12T19:06:22.606Z,52.25
2022-12-12T19:08:49.841Z,52.33
2022-12-12T19:11:16.905Z,48.33
2022-12-12T19:13:43.580Z,55.65
2022-12-12T19:16:14.966Z,51.65
2022-12-12T19:18:42.020Z,52.50
2022-12-12T19:21:23.654Z,52.90
2022-12-12T19:23:51.385Z,55.13
2022-12-12T19:26:27.881Z,50.78
2022-12-12T19:28:59.966Z,50.20
2022-12-12T19:31:27.350Z,47.10
2022-12-12T19:33:54.084Z,51.85
2022-12-12T19:36:23.889Z,49.05
2022-12-12T19:38:51.233Z,45.50
2022-12-12T19:41:20.191Z,52.47
2022-12-12T19:43:47.879Z,54.42
2022-12-12T19:46:19.315Z,51.40
2022-12-12T19:48:46.341Z,50.15
2022-12-12T19:51:19.229Z,51.03
2022-12-12T19:53:52.055Z,46.78
2022-12-12T19:56:22.049Z,46.08
2022-12-12T19:58:50.227Z,58.83
2022-12-12T20:01:20.496Z,51.58
2022-12-12T20:03:52.057Z,53.08
2022-12-12T20:08:47.750Z,45.17
2022-12-12T20:11:17.571Z,47.97
2022-12-12T20:13:55.064Z,54.75
2022-12-12T20:16:25.710Z,52.88
2022-12-12T20:18:53.255Z,54.72
2022-12-12T20:21:59.356Z,51.72
2022-12-12T20:24:11.821Z,53.88
2022-12-12T20:26:40.016Z,58.80
2022-12-12T20:29:08.060Z,50.17
2022-12-12T20:31:37.939Z,51.28
2022-12-12T20:34:04.769Z,45.05
2022-12-12T20:36:34.274Z,52.42
2022-12-12T20:39:04.537Z,44.58
2022-12-12T20:41:39.345Z,54.13
2022-12-12T20:44:07.204Z,53.97
2022-12-12T20:46:37.656Z,52.92
2022-12-12T20:49:09.358Z,50.35
2022-12-12T20:54:24.722Z,50.63
2022-12-12T20:56:52.333Z,58.67
2022-12-12T20:59:19.295Z,53.15
2022-12-12T21:01:47.136Z,52.47
2022-12-12T21:04:14.499Z,57.10
2022-12-12T21:06:48.406Z,58.63
2022-12-12T21:09:22.578Z,53.15
2022-12-12T21:11:52.134Z,52.47
2022-12-12T21:14:19.012Z,52.38
2022-12-12T21:16:46.282Z,54.92
2022-12-12T21:19:14.817Z,55.22
2022-12-12T21:21:43.122Z,54.22
2022-12-12T21:24:14.786Z,61.28
2022-12-12T21:26:41.720Z,54.47
2022-12-12T21:29:08.684Z,52.90
2022-12-12T21:31:38.729Z,61.17
2022-12-12T21:34:06.429Z,51.42
2022-12-12T21:36:33.560Z,55.30
2022-12-12T21:39:01.610Z,60.70
2022-12-12T21:41:28.726Z,53.60
2022-12-12T21:43:56.671Z,57.13
2022-12-12T21:46:25.242Z,59.92
2022-12-12T21:49:11.287Z,55.88
2022-12-12T21:51:41.451Z,53.70
2022-12-12T21:54:09.701Z,53.95
2022-12-12T21:56:36.775Z,58.22
2022-12-12T21:59:03.736Z,61.80
2022-12-12T22:01:31.966Z,63.50
2022-12-12T22:03:59.891Z,57.40
2022-12-12T22:06:29.586Z,52.60
2022-12-12T22:08:57.223Z,53.33
2022-12-12T22:11:40.949Z,62.65
2022-12-12T22:14:11.279Z,55.50
2022-12-12T22:16:38.524Z,52.60
2022-12-12T22:19:09.945Z,54.17
2022-12-12T22:21:36.955Z,55.30
2022-12-12T22:24:04.430Z,52.47
2022-12-12T22:26:39.712Z,56.00
2022-12-12T22:29:15.690Z,58.53
2022-12-12T22:31:43.011Z,64.47
2022-12-12T22:34:14.265Z,57.22
2022-12-12T22:36:41.436Z,53.95
2022-12-12T22:39:17.691Z,57.28
2022-12-12T22:41:44.618Z,53.10
2022-12-12T22:44:15.685Z,54.17
2022-12-12T22:46:47.129Z,57.67
2022-12-12T22:49:15.772Z,60.72
2022-12-12T22:51:43.602Z,52.72
2022-12-12T22:54:11.212Z,63.40
2022-12-12T22:56:39.401Z,57.28
2022-12-12T22:59:07.467Z,52.63
2022-12-12T23:01:35.147Z,59.60
2022-12-12T23:04:01.961Z,57.90
2022-12-12T23:06:31.605Z,56.60
2022-12-12T23:09:05.016Z,57.75
2022-12-12T23:11:32.835Z,55.72
2022-12-12T23:14:04.922Z,48.97
2022-12-12T23:16:34.329Z,51.40
2022-12-12T23:19:02.673Z,56.58
2022-12-12T23:21:29.425Z,58.20
2022-12-12T23:23:56.177Z,58.92
2022-12-12T23:26:25.597Z,54.85
2022-12-12T23:28:52.982Z,52.17
2022-12-12T23:31:22.666Z,54.42
2022-12-12T23:33:53.729Z,54.17
2022-12-12T23:36:20.727Z,57.72
2022-12-12T23:38:47.510Z,54.88
2022-12-12T23:41:16.342Z,51.13
2022-12-12T23:43:43.673Z,55.42
2022-12-12T23:46:28.073Z,55.70
2022-12-12T23:49:12.682Z,54.35
2022-12-12T23:51:42.013Z,53.42
2022-12-12T23:54:17.736Z,56.58
2022-12-12T23:56:44.956Z,54.67
2022-12-12T23:59:17.450Z,57.72
